Time;durP1;ratioP1;P1;durP2;ratioP2;P2;SDS_P1;SDS_P2;PMS_P1;PMS_P2;Temp;Humidity;BMP_temperature;BMP_pressure;BME280_temperature;BME280_humidity;BME280_pressure;Samples;Min_cycle;Max_cycle;Signal;HPM_P1;HPM_P2
2020/12/01 00:01:52;;;;;;;54.58;24.02;;;;;;;1.50;85.23;101160.03;4963634;28;20399;-75
2020/12/01 00:04:18;;;;;;;56.95;24.80;;;;;;;1.52;85.35;101158.25;4997157;28;20546;-75
2020/12/01 00:06:44;;;;;;;61.88;24.67;;;;;;;1.41;85.45;101153.09;4997317;28;20094;-77
2020/12/01 00:09:10;;;;;;;58.20;24.15;;;;;;;1.20;85.26;101124.34;4979604;28;20038;-76
2020/12/01 00:11:36;;;;;;;49.63;23.00;;;;;;;1.22;85.05;101122.59;4997080;28;20031;-76
2020/12/01 00:14:01;;;;;;;59.05;25.52;;;;;;;1.32;84.99;101135.63;4996777;28;20494;-77
2020/12/01 00:16:26;;;;;;;60.42;24.90;;;;;;;1.57;84.72;101167.84;4979680;28;20125;-77
2020/12/01 00:18:52;;;;;;;59.42;24.65;;;;;;;1.42;84.26;101142.56;4996996;28;20085;-77
2020/12/01 00:21:19;;;;;;;54.67;25.02;;;;;;;1.39;84.87;101146.97;4996957;28;20034;-77
2020/12/01 00:23:45;;;;;;;54.45;23.20;;;;;;;1.24;84.42;101126.06;4997221;28;20030;-76
2020/12/01 00:26:17;;;;;;;53.72;22.92;;;;;;;1.39;84.42;101152.22;4997114;28;20038;-75
2020/12/01 00:28:44;;;;;;;53.90;22.83;;;;;;;1.30;84.04;101136.53;4997008;28;20033;-77
2020/12/01 00:31:09;;;;;;;55.92;23.52;;;;;;;1.39;83.89;101154.88;4996516;28;20113;-77
2020/12/01 00:33:34;;;;;;;56.03;23.73;;;;;;;1.40;83.85;101149.59;4996839;28;20193;-76
2020/12/01 00:36:00;;;;;;;53.17;23.42;;;;;;;1.40;83.71;101143.47;4996518;28;20034;-75
2020/12/01 00:38:26;;;;;;;50.13;23.63;;;;;;;1.37;83.64;101144.38;4979287;28;20484;-75
2020/12/01 00:40:51;;;;;;;52.03;23.13;;;;;;;1.38;83.60;101138.22;4996297;28;20038;-76
2020/12/01 00:43:17;;;;;;;52.95;22.90;;;;;;;1.34;83.38;101132.97;4996815;28;20380;-77
2020/12/01 00:45:44;;;;;;;54.25;23.10;;;;;;;1.33;83.32;101123.34;4979423;28;20033;-76
2020/12/01 00:48:10;;;;;;;49.00;21.42;;;;;;;1.41;83.55;101139.94;4978771;28;20388;-77
2020/12/01 00:50:36;;;;;;;49.95;22.15;;;;;;;1.21;83.11;101105.06;4996192;28;20054;-76
2020/12/01 00:53:01;;;;;;;53.20;23.40;;;;;;;1.30;82.88;101131.28;4996270;28;20034;-76
2020/12/01 00:55:26;;;;;;;51.53;23.60;;;;;;;1.15;83.09;101116.50;4962101;28;20045;-75
2020/12/01 00:57:52;;;;;;;50.42;22.25;;;;;;;1.03;82.70;101106.09;4978904;28;20038;-77
2020/12/01 01:00:22;;;;;;;50.28;22.00;;;;;;;1.17;82.91;101141.03;4979088;28;20491;-76
2020/12/01 01:02:48;;;;;;;49.97;22.92;;;;;;;1.03;83.00;101112.22;4997022;28;20034;-75
2020/12/01 01:05:14;;;;;;;54.78;23.27;;;;;;;1.30;82.60;101147.91;4978573;28;20031;-77
2020/12/01 01:07:39;;;;;;;52.20;22.58;;;;;;;1.29;83.04;101150.56;4962572;28;20034;-76
2020/12/01 01:10:05;;;;;;;50.45;22.83;;;;;;;1.23;83.13;101146.22;4995770;28;20038;-77
2020/12/01 01:12:31;;;;;;;50.65;21.55;;;;;;;1.08;83.22;101128.81;4979131;28;20042;-77
2020/12/01 01:14:56;;;;;;;54.50;23.05;;;;;;;1.06;83.50;101133.22;4978546;28;20031;-75
2020/12/01 01:17:22;;;;;;;52.53;24.02;;;;;;;0.97;83.89;101143.81;4995957;28;20042;-76
2020/12/01 01:19:47;;;;;;;56.72;23.77;;;;;;;0.89;84.68;101136.84;4995919;28;20030;-76
2020/12/01 01:22:13;;;;;;;60.72;25.92;;;;;;;0.34;85.05;101076.78;4995596;28;20497;-76
2020/12/01 01:24:38;;;;;;;58.17;25.35;;;;;;;0.56;85.68;101121.25;4995779;28;20030;-75
2020/12/01 01:27:04;;;;;;;59.78;25.27;;;;;;;0.51;86.07;101119.56;4978429;28;20026;-74
2020/12/01 01:29:29;;;;;;;57.45;25.88;;;;;;;0.43;87.06;101113.47;4978433;28;20169;-75
2020/12/01 01:31:56;;;;;;;55.70;24.20;;;;;;;0.43;87.02;101118.72;4995580;28;20080;-75
2020/12/01 01:34:23;;;;;;;57.60;24.77;;;;;;;0.31;87.25;101098.66;4995591;28;20034;-75
2020/12/01 01:36:48;;;;;;;55.63;23.95;;;;;;;0.24;87.04;101081.19;4995693;28;20118;-75
2020/12/01 01:39:14;;;;;;;56.00;24.17;;;;;;;0.26;87.04;101090.81;4978217;28;20118;-75
2020/12/01 01:41:40;;;;;;;54.42;24.25;;;;;;;0.15;87.52;101089.09;4995540;28;20030;-76
2020/12/01 01:44:20;;;;;;;60.83;24.85;;;;;;;0.04;87.56;101089.16;4978211;28;20038;-77
2020/12/01 01:47:25;;;;;;;60.38;24.50;;;;;;;-0.05;87.87;101084.81;4995773;28;20033;-76
2020/12/01 01:49:57;;;;;;;54.03;23.23;;;;;;;-0.11;88.11;101079.59;4995160;28;20058;-76
2020/12/01 01:52:34;;;;;;;58.40;26.08;;;;;;;-0.13;88.58;101086.59;4995573;28;20061;-76
2020/12/01 01:55:06;;;;;;;61.33;24.58;;;;;;;-0.19;88.22;101075.22;4995102;28;20034;-77
2020/12/01 01:57:32;;;;;;;55.58;23.83;;;;;;;-0.11;88.20;101087.44;4995878;28;20053;-77
2020/12/01 01:59:59;;;;;;;55.78;23.52;;;;;;;-0.19;88.25;101076.13;4961588;28;20038;-76
2020/12/01 02:02:24;;;;;;;54.35;25.00;;;;;;;-0.40;88.02;101050.81;4995340;28;20035;-77
2020/12/01 02:04:50;;;;;;;58.53;24.92;;;;;;;-0.27;88.67;101064.78;4977821;28;20034;-76
2020/12/01 02:07:16;;;;;;;59.28;23.85;;;;;;;-0.28;88.58;101078.78;4995051;28;20038;-77
2020/12/01 02:09:49;;;;;;;52.53;24.08;;;;;;;-0.33;88.44;101089.28;4977797;28;20045;-78
2020/12/01 02:12:18;;;;;;;59.00;23.70;;;;;;;-0.39;88.61;101081.41;4994897;28;20438;-78
2020/12/01 02:14:49;;;;;;;55.67;23.67;;;;;;;-0.35;88.73;101096.28;4995047;28;20038;-78
2020/12/01 02:17:17;;;;;;;50.88;22.17;;;;;;;-0.46;88.21;101077.06;4977400;28;20110;-78
2020/12/01 02:19:42;;;;;;;52.85;23.13;;;;;;;-0.53;88.82;101063.97;4994836;28;20042;-78
2020/12/01 02:22:12;;;;;;;55.45;22.77;;;;;;;-0.40;88.53;101077.03;4994484;28;20388;-77
2020/12/01 02:24:38;;;;;;;53.50;23.00;;;;;;;-0.51;88.41;101088.44;4994931;28;20030;-79
2020/12/01 02:27:04;;;;;;;54.47;23.50;;;;;;;-0.61;89.10;101077.09;4994969;28;20038;-78
2020/12/01 02:29:32;;;;;;;53.33;22.25;;;;;;;-0.68;89.01;101070.97;4994904;28;20030;-76
2020/12/01 02:31:59;;;;;;;52.15;23.70;;;;;;;-0.64;89.10;101084.97;4977587;28;20173;-76
2020/12/01 02:34:34;;;;;;;57.65;23.70;;;;;;;-0.68;89.00;101078.84;4994651;28;20057;-76
2020/12/01 02:37:00;;;;;;;50.38;21.23;;;;;;;-0.72;89.16;101084.09;4994416;28;20034;-76
2020/12/01 02:39:28;;;;;;;57.60;22.88;;;;;;;-0.75;89.21;101082.34;4994364;28;20041;-80
2020/12/01 02:41:58;;;;;;;55.13;23.77;;;;;;;-0.77;89.38;101075.34;4994618;28;20038;-77
2020/12/01 02:44:24;;;;;;;55.13;23.58;;;;;;;-0.71;89.45;101084.09;4994623;28;20169;-76
2020/12/01 02:46:50;;;;;;;59.13;23.98;;;;;;;-0.99;89.49;101043.06;4977123;28;20101;-78
2020/12/01 02:49:15;;;;;;;63.22;24.20;;;;;;;-0.76;89.71;101072.75;4994314;28;20547;-78
2020/12/01 02:51:40;;;;;;;56.80;23.42;;;;;;;-0.77;89.76;101070.13;4994143;28;20121;-77
2020/12/01 02:54:06;;;;;;;52.35;23.30;;;;;;;-0.82;89.19;101067.50;4994516;28;20027;-75
2020/12/01 02:56:31;;;;;;;55.28;23.05;;;;;;;-0.74;89.60;101078.88;4976937;28;20038;-76
2020/12/01 02:58:57;;;;;;;51.85;22.85;;;;;;;-0.77;89.72;101072.72;4976770;28;20064;-77
2020/12/01 03:01:23;;;;;;;56.83;24.02;;;;;;;-0.83;89.48;101057.91;4976858;28;20046;-74
2020/12/01 03:03:48;;;;;;;56.78;22.95;;;;;;;-0.73;89.41;101064.00;4993967;28;20487;-75
2020/12/01 03:06:18;;;;;;;54.90;24.52;;;;;;;-0.89;89.57;101040.44;4993833;28;20034;-75
2020/12/01 03:08:44;;;;;;;55.00;23.73;;;;;;;-0.97;89.71;101016.00;4993836;28;20030;-76
2020/12/01 03:11:11;;;;;;;59.60;23.83;;;;;;;-0.92;89.56;101029.97;4993894;28;20122;-74
2020/12/01 03:13:36;;;;;;;52.63;22.80;;;;;;;-0.75;89.74;101058.78;4994391;28;20081;-77
2020/12/01 03:16:07;;;;;;;58.95;22.85;;;;;;;-0.98;89.83;101013.38;4976442;28;20042;-76
2020/12/01 03:18:33;;;;;;;57.50;24.70;;;;;;;-0.88;89.89;101044.81;4976757;28;20122;-75
2020/12/01 03:20:58;;;;;;;55.05;23.73;;;;;;;-1.00;89.56;101036.97;4976421;28;20034;-78
2020/12/01 03:23:23;;;;;;;58.38;23.55;;;;;;;-1.05;90.16;101037.84;4976445;28;20061;-77
2020/12/01 03:25:49;;;;;;;57.63;23.92;;;;;;;-1.01;89.96;101043.06;4993935;28;20027;-77
2020/12/01 03:28:14;;;;;;;55.25;23.77;;;;;;;-1.01;90.33;101040.47;4976165;28;20034;-76
2020/12/01 03:30:40;;;;;;;57.92;22.88;;;;;;;-0.98;90.08;101047.44;4960733;28;20050;-76
2020/12/01 03:33:06;;;;;;;59.15;23.90;;;;;;;-1.05;89.90;101058.81;4976068;28;20527;-74
2020/12/01 03:35:32;;;;;;;56.03;23.73;;;;;;;-1.18;89.87;101039.56;4976346;28;20403;-74
2020/12/01 03:37:57;;;;;;;54.45;22.80;;;;;;;-1.12;90.02;101051.81;4993517;28;20035;-74
2020/12/01 03:40:23;;;;;;;57.88;23.92;;;;;;;-1.18;90.45;101050.06;4976240;28;20037;-75
2020/12/01 03:42:49;;;;;;;54.85;22.70;;;;;;;-1.24;90.41;101043.09;4976436;28;20034;-75
2020/12/01 03:45:14;;;;;;;56.40;23.52;;;;;;;-1.24;90.22;101036.97;4959983;28;20158;-75
2020/12/01 03:47:40;;;;;;;58.15;24.35;;;;;;;-1.19;90.09;101051.81;4993590;28;20473;-75
2020/12/01 03:50:06;;;;;;;55.55;23.55;;;;;;;-1.20;90.22;101036.97;4993342;28;20047;-77
2020/12/01 03:52:31;;;;;;;60.67;24.08;;;;;;;-1.16;90.25;101051.81;4993367;28;20223;-75
2020/12/01 03:54:57;;;;;;;59.47;23.85;;;;;;;-1.28;89.98;101035.22;4993720;28;20064;-79
2020/12/01 03:57:22;;;;;;;53.95;23.45;;;;;;;-1.16;90.24;101045.69;4993404;28;20045;-79
2020/12/01 03:59:47;;;;;;;60.90;23.88;;;;;;;-1.18;90.10;101037.84;4993439;28;20038;-80
2020/12/01 04:02:13;;;;;;;57.35;23.40;;;;;;;-1.21;90.40;101040.47;4975914;28;20503;-80
2020/12/01 04:04:38;;;;;;;55.90;23.27;;;;;;;-1.32;89.93;101026.50;4993402;28;20088;-74
2020/12/01 04:07:04;;;;;;;56.72;24.50;;;;;;;-1.39;90.25;101032.59;4992917;28;20026;-74
2020/12/01 04:09:29;;;;;;;65.70;25.15;;;;;;;-1.30;90.49;101037.84;4993468;28;20041;-76
2020/12/01 04:11:55;;;;;;;59.95;24.35;;;;;;;-1.40;90.44;101025.63;4993364;28;20042;-74
2020/12/01 04:14:20;;;;;;;58.08;23.55;;;;;;;-1.39;89.98;101021.25;4993115;28;20419;-76
2020/12/01 04:16:46;;;;;;;55.53;22.85;;;;;;;-1.31;89.73;101038.72;4993284;28;20034;-74
2020/12/01 04:19:12;;;;;;;61.53;24.60;;;;;;;-1.32;90.26;101034.34;4993301;28;20065;-76
2020/12/01 04:21:37;;;;;;;63.33;25.20;;;;;;;-1.54;90.50;100990.72;4993240;28;20093;-74
2020/12/01 04:24:02;;;;;;;63.45;24.33;;;;;;;-1.36;90.27;101026.47;4975889;28;20038;-76
2020/12/01 04:26:28;;;;;;;55.40;24.10;;;;;;;-1.68;90.53;100968.91;4976004;28;20041;-75
2020/12/01 04:28:53;;;;;;;61.53;24.70;;;;;;;-1.35;90.60;101026.50;4975858;28;20037;-74
2020/12/01 04:31:19;;;;;;;53.92;22.90;;;;;;;-1.45;90.57;101017.78;4977752;28;20034;-77
2020/12/01 04:33:44;;;;;;;55.67;22.85;;;;;;;-1.48;90.18;101019.50;4963277;28;20026;-74
2020/12/01 04:36:10;;;;;;;57.95;23.77;;;;;;;-1.51;89.82;101019.50;4996719;28;20101;-77
2020/12/01 04:38:37;;;;;;;62.88;24.67;;;;;;;-1.46;90.31;101021.22;4979520;28;20062;-79
2020/12/01 04:41:03;;;;;;;59.88;24.70;;;;;;;-1.39;90.39;101032.59;4996974;28;20129;-77
2020/12/01 04:44:02;;;;;;;57.55;23.15;;;;;;;-1.25;90.48;101036.13;4979833;28;20121;-78
2020/12/01 04:46:32;;;;;;;63.33;24.88;;;;;;;-1.38;90.03;101030.84;4962492;28;20456;-78
2020/12/01 04:49:04;;;;;;;63.72;25.23;;;;;;;-1.40;90.01;101025.63;4996423;28;20472;-78
2020/12/01 04:51:54;;;;;;;60.17;24.90;;;;;;;-1.36;90.00;101024.72;4979512;28;20513;-76
2020/12/01 04:54:31;;;;;;;56.63;23.83;;;;;;;-1.30;90.15;101029.13;4978833;28;20026;-75
2020/12/01 04:57:05;;;;;;;59.95;25.58;;;;;;;-1.27;90.17;101029.97;4996374;28;20113;-77
2020/12/01 04:59:53;;;;;;;56.45;23.42;;;;;;;-1.14;89.88;101025.63;4996464;28;20081;-76
2020/12/01 05:02:40;;;;;;;55.95;23.77;;;;;;;-1.11;89.54;101009.91;4995302;28;20432;-77
2020/12/01 05:05:53;;;;;;;62.20;25.13;;;;;;;-0.96;89.55;101020.41;4996240;28;20041;-78
2020/12/01 05:08:31;;;;;;;57.25;22.65;;;;;;;-0.80;89.70;101025.59;4978681;28;20061;-77
2020/12/01 05:11:00;;;;;;;56.17;22.95;;;;;;;-0.79;89.62;101022.97;4996373;28;20365;-79
2020/12/01 05:13:30;;;;;;;61.13;24.20;;;;;;;-0.77;89.24;101013.38;4995921;28;20157;-77
2020/12/01 05:16:40;;;;;;;56.83;23.55;;;;;;;-0.71;89.02;101008.09;4996005;28;20037;-78
2020/12/01 05:19:33;;;;;;;54.50;24.33;;;;;;;-0.70;88.96;101012.47;4996231;28;20030;-78
2020/12/01 05:21:59;;;;;;;62.45;24.63;;;;;;;-0.79;88.87;101002.00;4995932;28;20554;-78
2020/12/01 05:24:35;;;;;;;60.83;24.65;;;;;;;-0.68;89.01;101008.09;4978210;28;20039;-76
2020/12/01 05:27:00;;;;;;;58.40;24.00;;;;;;;-0.54;88.95;101009.81;4996038;28;20043;-78
2020/12/01 05:29:26;;;;;;;60.35;24.63;;;;;;;-0.72;89.05;100985.41;4978304;28;20472;-77
2020/12/01 05:31:51;;;;;;;59.25;23.40;;;;;;;-0.81;89.08;100977.56;4978356;28;20042;-75
2020/12/01 05:34:20;;;;;;;56.67;24.73;;;;;;;-0.69;88.97;100998.50;4995274;28;20081;-76
2020/12/01 05:36:46;;;;;;;60.75;24.95;;;;;;;-0.69;89.12;101003.72;4978004;28;20049;-75
2020/12/01 05:39:24;;;;;;;59.95;24.55;;;;;;;-0.64;89.15;101011.59;4995118;28;20484;-74
2020/12/01 05:42:02;;;;;;;51.47;23.10;;;;;;;-0.83;89.04;100971.47;4995323;28;20041;-75
2020/12/01 05:44:30;;;;;;;55.50;22.83;;;;;;;-0.62;88.52;101000.22;4995259;28;20061;-76
2020/12/01 05:47:01;;;;;;;61.00;24.90;;;;;;;-0.56;88.66;101011.59;4995477;28;20443;-76
2020/12/01 05:49:40;;;;;;;53.20;23.30;;;;;;;-0.51;88.57;101012.44;4994531;28;20090;-77
2020/12/01 05:52:26;;;;;;;54.13;22.17;;;;;;;-0.51;88.44;101004.56;4995332;28;20034;-77
2020/12/01 05:55:15;;;;;;;56.78;23.50;;;;;;;-0.50;88.41;101011.53;4995246;28;20051;-77
2020/12/01 05:57:41;;;;;;;56.03;23.55;;;;;;;-0.42;88.00;100999.28;4994989;28;20030;-77
2020/12/01 06:00:14;;;;;;;54.58;23.33;;;;;;;-0.18;87.13;101004.47;4995273;28;20037;-78
2020/12/01 06:02:50;;;;;;;58.50;24.17;;;;;;;-0.50;87.66;100980.09;4995073;28;20040;-77
2020/12/01 06:05:22;;;;;;;60.15;24.67;;;;;;;-0.07;86.69;101007.91;4995203;28;20217;-80
2020/12/01 06:07:49;;;;;;;56.22;24.25;;;;;;;-0.01;85.86;101002.59;4994794;28;20109;-78
2020/12/01 06:10:33;;;;;;;59.65;24.65;;;;;;;-0.12;86.49;101003.53;4960954;28;20045;-77
2020/12/01 06:13:11;;;;;;;56.25;24.23;;;;;;;-0.04;85.97;101004.38;4977708;28;20034;-77
2020/12/01 06:15:57;;;;;;;57.63;24.92;;;;;;;-0.14;86.21;101003.56;4977472;28;20129;-77
2020/12/01 06:18:43;;;;;;;56.13;24.67;;;;;;;-0.17;86.63;101000.94;4994293;28;20042;-80
2020/12/01 06:21:10;;;;;;;61.13;25.15;;;;;;;-0.45;87.24;100967.88;4977868;28;20034;-75
2020/12/01 06:23:54;;;;;;;61.33;26.52;;;;;;;-0.13;86.73;101007.91;4994141;28;20120;-78
2020/12/01 06:26:47;;;;;;;62.67;25.88;;;;;;;-0.01;86.24;101001.72;4993978;28;20034;-78
2020/12/01 06:29:51;;;;;;;55.03;25.27;;;;;;;-0.03;86.08;100993.88;4977070;28;20037;-77
2020/12/01 06:32:57;;;;;;;62.20;26.10;;;;;;;-0.09;86.61;100999.19;4963576;28;20041;-78
2020/12/01 06:35:44;;;;;;;59.13;25.05;;;;;;;-0.22;86.35;100973.88;4994248;28;20037;-78
2020/12/01 06:38:46;;;;;;;62.45;26.90;;;;;;;-0.11;87.04;101006.16;4994409;28;20479;-79
2020/12/01 06:41:15;;;;;;;62.80;25.60;;;;;;;-0.06;87.13;101008.78;4994343;28;20038;-79
2020/12/01 06:43:46;;;;;;;59.28;24.88;;;;;;;-0.15;87.27;100986.06;4994442;28;20033;-76
2020/12/01 06:46:37;;;;;;;64.28;25.30;;;;;;;-0.07;87.69;101002.66;4994589;28;20057;-78
2020/12/01 06:49:05;;;;;;;60.40;25.20;;;;;;;-0.23;87.30;100966.88;4976554;28;20108;-77
2020/12/01 06:51:31;;;;;;;61.03;25.30;;;;;;;0.12;87.14;100997.31;4993716;28;20053;-78
2020/12/01 06:54:09;;;;;;;60.78;24.52;;;;;;;0.18;85.33;100982.38;4960366;28;20391;-76
2020/12/01 06:56:34;;;;;;;59.88;25.38;;;;;;;0.24;85.35;100997.22;4994117;28;20391;-79
2020/12/01 06:59:12;;;;;;;59.00;24.52;;;;;;;0.19;85.72;101002.53;4994127;28;20041;-79
2020/12/01 07:01:39;;;;;;;65.90;26.05;;;;;;;0.19;85.97;101001.63;4993729;28;20484;-77
2020/12/01 07:04:15;;;;;;;57.65;24.85;;;;;;;0.18;86.12;100997.25;4993822;28;20038;-77
2020/12/01 07:06:45;;;;;;;61.65;26.80;;;;;;;0.17;86.56;100982.41;4994040;28;20117;-78
2020/12/01 07:09:22;;;;;;;56.10;24.83;;;;;;;0.26;85.72;101001.59;4994101;28;20034;-78
2020/12/01 07:12:46;;;;;;;59.78;24.90;;;;;;;0.45;85.53;100999.72;4993983;28;20030;-77
2020/12/01 07:15:36;;;;;;;54.33;23.85;;;;;;;0.38;85.32;101005.00;4993855;28;20041;-75
2020/12/01 07:18:14;;;;;;;56.50;25.33;;;;;;;0.38;85.23;101003.25;4997788;28;20046;-74
2020/12/01 07:21:17;;;;;;;58.08;24.45;;;;;;;0.30;85.21;100999.84;4995496;28;20423;-71
2020/12/01 07:23:58;;;;;;;59.38;24.38;;;;;;;0.37;85.49;101006.75;4993791;28;20062;-75
2020/12/01 07:26:38;;;;;;;56.65;25.13;;;;;;;0.41;85.73;100999.75;4976083;28;20041;-77
2020/12/01 07:29:21;;;;;;;57.17;24.63;;;;;;;0.49;85.54;101009.31;4993665;28;20062;-76
2020/12/01 07:31:47;;;;;;;;;;;;;;;0.50;85.27;101010.19;4993996;28;20030;-74
2020/12/01 07:34:31;;;;;;;62.72;25.08;;;;;;;0.80;84.39;101001.22;4993532;28;19914;-76
2020/12/01 07:37:31;;;;;;;59.28;24.85;;;;;;;0.83;83.89;100993.28;4976447;28;20479;-75
2020/12/01 07:39:59;;;;;;;53.75;23.52;;;;;;;0.98;83.44;101008.94;4993760;28;20027;-75
2020/12/01 07:42:29;;;;;;;52.47;23.95;;;;;;;1.03;83.45;100996.59;4993193;28;20475;-76
2020/12/01 07:44:56;;;;;;;58.83;24.88;;;;;;;0.66;83.52;100942.66;4993275;28;20395;-76
2020/12/01 07:47:25;;;;;;;66.50;25.38;;;;;;;0.94;83.93;101012.44;4975684;28;20041;-75
2020/12/01 07:50:02;;;;;;;53.92;24.25;;;;;;;0.94;84.64;101009.81;4993157;28;20054;-76
2020/12/01 07:52:39;;;;;;;60.50;25.15;;;;;;;0.97;84.21;100996.69;4993629;28;20074;-76
2020/12/01 07:55:14;;;;;;;58.53;24.95;;;;;;;1.13;83.41;100994.75;4993422;28;20045;-76
2020/12/01 07:57:39;;;;;;;60.03;24.60;;;;;;;1.11;83.03;100975.53;4976634;28;20037;-76
2020/12/01 08:00:05;;;;;;;60.33;25.92;;;;;;;1.20;82.93;100977.19;4976054;28;20038;-74
2020/12/01 08:02:31;;;;;;;63.30;25.27;;;;;;;1.14;83.01;100997.38;4943718;28;20045;-75
2020/12/01 08:05:11;;;;;;;60.08;25.45;;;;;;;1.22;83.11;100989.41;4995195;28;20465;-75
2020/12/01 08:07:36;;;;;;;60.55;25.67;;;;;;;1.02;83.41;100955.47;4997114;28;20113;-76
2020/12/01 08:10:14;;;;;;;65.43;27.30;;;;;;;1.07;83.01;100945.78;4997213;28;20122;-77
2020/12/01 08:12:48;;;;;;;63.60;27.85;;;;;;;1.28;83.84;100980.63;4996888;28;20057;-76
2020/12/01 08:15:20;;;;;;;66.53;28.60;;;;;;;1.29;83.97;100977.09;4996997;28;20031;-75
2020/12/01 08:17:46;;;;;;;67.53;27.20;;;;;;;1.18;83.98;100973.72;4997091;28;20081;-76
2020/12/01 08:20:15;;;;;;;65.22;27.70;;;;;;;1.13;83.89;100966.72;4979827;28;20090;-74
2020/12/01 08:22:47;;;;;;;64.13;27.35;;;;;;;1.26;84.21;100995.53;4996822;28;20391;-74
2020/12/01 08:25:17;;;;;;;70.28;27.08;;;;;;;1.21;84.36;101007.84;4996890;28;20030;-75
2020/12/01 08:27:50;;;;;;;61.72;26.38;;;;;;;1.39;84.33;100992.75;4996618;28;20037;-75
2020/12/01 08:30:42;;;;;;;66.35;26.98;;;;;;;1.36;83.51;100978.78;4995997;28;20057;-76
2020/12/01 08:33:21;;;;;;;62.80;26.23;;;;;;;1.41;83.44;100971.69;4996666;28;20033;-75
2020/12/01 08:35:59;;;;;;;62.42;26.65;;;;;;;1.55;82.18;100969.78;4996713;28;20030;-75
2020/12/01 08:38:44;;;;;;;55.65;24.92;;;;;;;1.70;82.22;100981.88;4996332;28;20391;-76
2020/12/01 08:41:33;;;;;;;65.18;26.40;;;;;;;1.75;81.40;100955.53;4996615;28;20042;-75
2020/12/01 08:44:08;;;;;;;62.25;26.00;;;;;;;1.65;79.79;100917.97;4979177;28;20082;-76
2020/12/01 08:46:39;;;;;;;51.65;23.70;;;;;;;2.01;78.07;100974.44;4978823;28;20034;-76
2020/12/01 08:49:23;;;;;;;56.08;23.63;;;;;;;2.00;79.53;100970.94;4996167;28;20041;-76
2020/12/01 08:51:56;;;;;;;57.97;24.45;;;;;;;2.00;79.42;100980.59;4979453;28;20050;-74
2020/12/01 08:54:28;;;;;;;64.88;26.55;;;;;;;1.94;79.80;100978.06;4996612;28;20042;-76
2020/12/01 08:57:14;;;;;;;60.60;25.20;;;;;;;1.67;79.49;100932.81;4997172;28;20034;-75
2020/12/01 08:59:47;;;;;;;57.75;25.45;;;;;;;1.87;79.84;100986.94;4996448;28;20109;-75
2020/12/01 09:02:15;;;;;;;53.72;23.98;;;;;;;1.51;80.42;100933.03;4979079;28;20129;-74
2020/12/01 09:04:41;;;;;;;60.90;25.50;;;;;;;1.69;81.00;100974.88;4996047;28;20495;-75
2020/12/01 09:07:20;;;;;;;59.40;25.42;;;;;;;1.58;81.30;100980.25;4978838;28;20034;-78
2020/12/01 09:09:48;;;;;;;58.40;25.92;;;;;;;1.60;81.72;100978.47;4995905;28;20225;-75
2020/12/01 09:12:25;;;;;;;59.72;26.20;;;;;;;1.70;81.17;100974.84;4996198;28;20039;-76
2020/12/01 09:15:11;;;;;;;60.22;25.25;;;;;;;1.73;80.66;100958.16;4996267;28;20240;-74
2020/12/01 09:18:33;;;;;;;57.00;25.83;;;;;;;1.90;80.13;100963.19;4980403;28;20392;-75
2020/12/01 09:23:26;;;;;;;59.75;25.10;;;;;;;2.14;79.35;100952.34;4995790;28;20042;-75
2020/12/01 09:25:53;;;;;;;62.13;27.02;;;;;;;2.11;78.90;100949.75;4978465;28;20085;-76
2020/12/01 09:28:21;;;;;;;57.75;23.98;;;;;;;2.15;78.83;100950.59;4996046;28;20157;-76
2020/12/01 09:30:47;;;;;;;55.92;25.17;;;;;;;2.05;77.73;100934.06;4978117;28;20384;-75
2020/12/01 09:33:17;;;;;;;60.47;25.63;;;;;;;2.11;77.26;100925.19;4978250;28;20038;-77
2020/12/01 09:35:42;;;;;;;51.42;22.70;;;;;;;2.16;76.33;100936.53;4995686;28;20031;-75
2020/12/01 09:38:08;;;;;;;54.78;22.92;;;;;;;2.26;76.10;100938.13;4995748;28;20038;-75
2020/12/01 09:40:36;;;;;;;55.40;22.67;;;;;;;2.47;75.13;100926.38;4977710;28;20045;-75
2020/12/01 09:43:17;;;;;;;49.50;22.73;;;;;;;2.45;73.85;100925.53;4978541;28;20042;-76
2020/12/01 09:45:44;;;;;;;53.53;23.70;;;;;;;2.45;75.08;100907.13;4978047;28;20030;-75
2020/12/01 09:48:24;;;;;;;54.13;23.10;;;;;;;2.50;74.96;100905.25;4995027;28;20137;-76
2020/12/01 09:50:50;;;;;;;54.42;23.83;;;;;;;2.55;73.55;100875.31;4995002;28;20105;-76
2020/12/01 10:09:04;;;;;;;47.63;22.15;;;;;;;3.22;72.09;100878.47;4980285;28;20041;-75
2020/12/01 10:25:53;;;;;;;50.17;23.45;;;;;;;3.30;71.16;100860.72;4994873;28;20045;-74
2020/12/01 10:35:48;;;;;;;49.70;22.30;;;;;;;3.20;69.65;100824.91;4994587;28;20046;-74
2020/12/01 10:38:13;;;;;;;48.50;21.20;;;;;;;3.16;69.22;100839.03;4977037;28;20468;-75
2020/12/01 10:40:39;;;;;;;47.65;20.55;;;;;;;3.24;69.06;100837.13;4976858;28;20384;-76
2020/12/01 10:43:06;;;;;;;43.47;20.63;;;;;;;3.30;67.81;100863.38;4961218;28;20365;-76
2020/12/01 10:45:31;;;;;;;47.00;20.63;;;;;;;3.14;67.62;100817.13;4994056;28;20092;-75
2020/12/01 10:47:57;;;;;;;46.85;20.33;;;;;;;3.53;66.85;100856.72;4994271;28;20035;-77
2020/12/01 10:50:26;;;;;;;48.25;22.77;;;;;;;3.45;68.21;100854.25;4941315;28;20490;-75
2020/12/01 10:52:52;;;;;;;51.00;24.10;;;;;;;3.47;68.29;100854.22;4974727;28;20034;-74
2020/12/01 10:55:22;;;;;;;46.50;20.15;;;;;;;3.44;67.36;100824.38;4989989;28;20058;-76
2020/12/01 10:57:49;;;;;;;43.72;20.60;;;;;;;3.69;65.89;100848.44;4973062;28;20041;-75
2020/12/01 11:00:15;;;;;;;43.00;20.70;;;;;;;3.70;66.33;100849.31;4974665;28;20464;-76
2020/12/01 11:02:40;;;;;;;43.47;20.70;;;;;;;3.82;66.45;100846.38;4975015;28;20114;-76
2020/12/01 11:05:11;;;;;;;46.28;20.58;;;;;;;3.78;66.40;100839.47;4974673;28;20050;-74
2020/12/01 11:07:37;;;;;;;47.70;20.42;;;;;;;3.68;66.03;100828.25;4974590;28;20034;-75
2020/12/01 11:10:03;;;;;;;45.28;20.83;;;;;;;3.66;65.98;100818.59;4973189;28;20404;-76
2020/12/01 11:12:28;;;;;;;41.95;19.60;;;;;;;3.67;65.69;100823.88;4989461;28;20366;-75
2020/12/01 11:14:54;;;;;;;41.95;19.63;;;;;;;3.89;64.80;100829.50;4973318;28;20109;-74
2020/12/01 11:17:19;;;;;;;47.13;20.33;;;;;;;3.81;65.18;100835.88;4974630;28;20038;-75
2020/12/01 11:19:44;;;;;;;45.92;20.63;;;;;;;3.73;65.10;100825.47;4989456;28;20038;-74
2020/12/01 11:22:13;;;;;;;41.00;20.00;;;;;;;3.71;65.10;100795.63;4974301;28;20035;-75
2020/12/01 11:24:39;;;;;;;41.55;20.92;;;;;;;3.80;66.08;100819.16;4974184;28;20110;-75
2020/12/01 11:27:04;;;;;;;46.22;20.63;;;;;;;3.71;65.41;100803.56;4974418;28;20041;-75
2020/12/01 11:29:29;;;;;;;46.90;21.30;;;;;;;3.56;65.62;100774.88;4974313;28;20039;-75
2020/12/01 11:31:55;;;;;;;44.50;20.38;;;;;;;3.67;65.84;100778.16;4974054;28;20034;-76
2020/12/01 11:34:20;;;;;;;40.20;18.95;;;;;;;3.87;64.93;100818.13;4989003;28;20034;-75
2020/12/01 11:36:45;;;;;;;39.97;18.65;;;;;;;3.63;64.13;100776.47;4973931;28;20034;-76
2020/12/01 11:39:14;;;;;;;40.22;18.10;;;;;;;3.90;64.57;100823.31;4973980;28;20064;-76
2020/12/01 11:41:39;;;;;;;38.10;17.35;;;;;;;3.73;64.64;100783.28;4973755;28;20058;-75
2020/12/01 11:44:06;;;;;;;43.63;19.05;;;;;;;3.90;64.25;100799.56;4974606;28;20069;-75
2020/12/01 11:46:32;;;;;;;40.53;18.10;;;;;;;3.90;63.55;100791.66;4974242;28;20039;-75
2020/12/01 11:49:01;;;;;;;42.70;19.00;;;;;;;3.86;64.05;100804.94;4972288;28;20082;-74
2020/12/01 11:51:28;;;;;;;41.63;19.33;;;;;;;3.99;64.62;100815.19;4990442;28;20057;-74
2020/12/01 11:53:54;;;;;;;35.38;16.95;;;;;;;4.01;62.98;100820.44;4993402;28;20030;-73
2020/12/01 11:56:20;;;;;;;38.47;18.17;;;;;;;3.91;63.25;100797.81;4960384;28;20046;-76
2020/12/01 11:58:45;;;;;;;37.13;17.92;;;;;;;3.77;64.71;100810.47;4960168;28;20038;-74
2020/12/01 12:01:11;;;;;;;39.28;17.75;;;;;;;3.80;64.43;100797.19;4960130;28;20042;-77
2020/12/01 12:03:36;;;;;;;41.65;18.27;;;;;;;3.71;65.12;100782.44;4959857;28;20035;-75
2020/12/01 12:06:01;;;;;;;34.15;16.77;;;;;;;3.65;65.12;100803.69;4976194;28;20044;-76
2020/12/01 12:08:27;;;;;;;35.58;17.90;;;;;;;3.60;65.75;100808.22;4975780;28;20076;-76
2020/12/01 12:10:53;;;;;;;42.10;18.38;;;;;;;3.52;66.09;100810.16;4975992;28;20121;-76
2020/12/01 12:13:18;;;;;;;33.72;16.25;;;;;;;3.28;65.35;100764.97;4993267;28;20062;-76